createdAt,value
2023-04-12T00:23:27.154Z,8.07
2023-04-12T00:27:56.055Z,8.03
2023-04-12T00:32:25.526Z,8.02
2023-04-12T00:36:54.994Z,8.00
2023-04-12T00:54:00.180Z,8.02
2023-04-12T00:58:29.547Z,7.99
2023-04-12T01:02:58.409Z,7.96
2023-04-12T01:07:52.737Z,7.93
2023-04-12T01:25:54.371Z,7.88
2023-04-12T01:30:24.626Z,7.84
2023-04-12T01:34:42.261Z,7.79
2023-04-12T01:56:32.610Z,7.59
2023-04-12T02:00:50.796Z,7.52
2023-04-12T02:05:12.105Z,7.45
2023-04-12T02:09:42.556Z,7.39
2023-04-12T02:27:03.431Z,7.06
2023-04-12T02:31:32.187Z,6.96
2023-04-12T02:36:01.662Z,6.88
2023-04-12T02:40:20.078Z,6.79
2023-04-12T03:20:01.268Z,5.80
2023-04-12T03:24:30.831Z,5.66
2023-04-12T03:50:05.969Z,5.05
2023-04-12T03:54:41.820Z,4.96
2023-04-12T03:59:03.417Z,4.87
2023-04-12T04:03:23.074Z,4.77
2023-04-12T04:24:42.828Z,4.63
2023-04-12T04:29:12.129Z,4.78
2023-04-12T04:50:52.932Z,5.90
2023-04-12T04:55:14.533Z,6.07
2023-04-12T05:16:37.560Z,6.66
2023-04-12T05:20:56.061Z,6.75
2023-04-12T05:25:16.502Z,6.86
2023-04-12T05:29:06.610Z,7.02
2023-04-12T05:32:46.803Z,7.15
2023-04-12T05:36:14.647Z,7.27
2023-04-12T05:39:43.684Z,7.45
2023-04-12T05:43:45.872Z,7.66
2023-04-12T05:46:37.401Z,7.83
2023-04-12T05:50:03.460Z,7.99
2023-04-12T05:54:16.872Z,8.22
2023-04-12T05:58:35.482Z,8.47
2023-04-12T06:02:29.443Z,8.67
2023-04-12T06:06:17.211Z,8.86
2023-04-12T06:10:17.745Z,9.08
2023-04-12T06:14:31.738Z,9.32
2023-04-12T06:22:54.558Z,9.78
2023-04-12T06:26:49.999Z,9.97
2023-04-12T06:30:44.485Z,10.04
2023-04-12T06:34:41.877Z,10.07
2023-04-12T06:39:03.484Z,10.13
2023-04-12T06:42:57.569Z,10.20
2023-04-12T06:51:36.804Z,10.43
2023-04-12T06:55:32.504Z,10.57
2023-04-12T06:59:30.945Z,10.72
2023-04-12T07:02:13.083Z,10.84
2023-04-12T07:04:58.233Z,10.93
2023-04-12T07:08:55.456Z,11.06
2023-04-12T07:12:40.500Z,11.17
2023-04-12T07:16:33.121Z,11.24
2023-04-12T07:21:03.483Z,11.38
2023-04-12T07:25:02.350Z,11.54
2023-04-12T07:29:13.979Z,11.72
2023-04-12T07:33:19.564Z,11.82
2023-04-12T07:37:38.063Z,11.98
2023-04-12T08:11:38.881Z,12.29
2023-04-12T08:15:50.756Z,12.40
2023-04-12T08:19:55.858Z,12.61
2023-04-12T08:24:19.476Z,12.85
2023-04-12T08:28:40.810Z,13.00
2023-04-12T08:32:50.328Z,13.11
2023-04-12T08:58:10.449Z,13.43
2023-04-12T09:02:04.515Z,13.34
2023-04-12T09:06:34.835Z,13.50
2023-04-12T09:10:52.720Z,13.47
2023-04-12T09:15:22.650Z,13.76
2023-04-12T09:37:07.004Z,14.65
2023-04-12T09:41:01.654Z,14.42
2023-04-12T09:45:28.281Z,14.40
2023-04-12T09:49:57.118Z,14.57
2023-04-12T09:54:19.560Z,14.83
2023-04-12T09:58:29.991Z,14.84
2023-04-12T10:15:29.213Z,15.80
2023-04-12T10:19:54.127Z,15.68
2023-04-12T10:23:50.639Z,15.73
2023-04-12T10:28:33.390Z,15.55
2023-04-12T11:37:54.797Z,16.56
2023-04-12T11:42:27.114Z,16.26
2023-04-12T11:46:47.437Z,16.32
2023-04-12T11:51:11.678Z,16.30
2023-04-12T12:34:09.290Z,15.97
2023-04-12T12:38:32.622Z,16.28
2023-04-12T12:43:02.207Z,16.68
2023-04-12T12:47:19.313Z,16.58
2023-04-12T13:04:42.311Z,17.80
2023-04-12T13:09:11.838Z,18.15
2023-04-12T13:31:35.399Z,17.72
2023-04-12T13:36:05.194Z,17.80
2023-04-12T13:53:26.592Z,18.54
2023-04-12T13:57:55.854Z,18.27
2023-04-12T14:02:24.643Z,18.12
2023-04-12T14:06:54.108Z,18.06
2023-04-12T14:11:24.135Z,17.92
2023-04-12T14:33:11.489Z,17.62
2023-04-12T14:37:41.148Z,17.09
2023-04-12T14:42:10.553Z,16.49
2023-04-12T14:59:25.457Z,15.37
2023-04-12T15:03:54.825Z,15.33
2023-04-12T15:08:26.342Z,15.46
2023-04-12T15:25:46.534Z,15.53
2023-04-12T15:30:16.302Z,15.43
2023-04-12T15:34:45.649Z,15.28
2023-04-12T15:52:12.335Z,14.77
2023-04-12T15:57:43.391Z,14.68
2023-04-12T16:14:22.908Z,14.19
2023-04-12T16:18:52.486Z,14.00
2023-04-12T16:23:22.004Z,13.81
2023-04-12T16:27:44.207Z,13.64
2023-04-12T16:47:22.546Z,13.20
2023-04-12T16:51:53.882Z,13.07
2023-04-12T16:56:24.093Z,12.90
2023-04-12T17:18:05.027Z,12.38
2023-04-12T17:22:41.745Z,12.28
2023-04-12T17:44:19.714Z,11.90
2023-04-12T17:48:40.973Z,11.81
2023-04-12T18:14:57.782Z,11.53
2023-04-12T18:19:19.767Z,11.49
2023-04-12T18:36:35.451Z,11.40
2023-04-12T18:40:57.741Z,11.34
2023-04-12T18:45:28.252Z,11.28
2023-04-12T18:49:59.366Z,11.21
2023-04-12T18:54:12.244Z,11.15
2023-04-12T18:58:54.618Z,11.11
2023-04-12T19:17:25.196Z,11.06
2023-04-12T19:21:49.992Z,11.01
2023-04-12T19:43:38.175Z,10.80
2023-04-12T19:48:07.656Z,10.74
2023-04-12T19:52:37.040Z,10.69
2023-04-12T20:09:41.056Z,10.59
2023-04-12T20:14:10.606Z,10.55
2023-04-12T20:18:40.036Z,10.50
2023-04-12T20:36:06.358Z,10.44
2023-04-12T20:40:35.194Z,10.41
2023-04-12T21:07:59.219Z,10.36
2023-04-12T21:12:28.446Z,10.32
2023-04-12T21:16:57.958Z,10.30
2023-04-12T21:21:28.655Z,10.29
2023-04-12T21:38:45.566Z,10.26
2023-04-12T21:43:14.925Z,10.25
2023-04-12T22:04:51.748Z,10.21
2023-04-12T22:09:21.481Z,10.20
2023-04-12T22:26:36.998Z,10.18
2023-04-12T22:31:06.104Z,10.15
2023-04-12T22:35:23.929Z,10.12
2023-04-12T22:56:49.591Z,10.01
2023-04-12T23:01:19.951Z,10.04
2023-04-12T23:05:48.998Z,10.07
2023-04-12T23:23:15.014Z,10.22
2023-04-12T23:27:44.507Z,10.24
2023-04-12T23:49:25.595Z,10.34
2023-04-12T23:53:54.481Z,10.33
